Time;durP1;ratioP1;P1;durP2;ratioP2;P2;SDS_P1;SDS_P2;PMS_P1;PMS_P2;Temp;Humidity;BMP_temperature;BMP_pressure;BME280_temperature;BME280_humidity;BME280_pressure;Samples;Min_cycle;Max_cycle;Signal;HPM_P1;HPM_P2
2022/11/24 00:01:06;;;;;;;10.77;2.03;;;;;7.90;99794.00;;;;10435072;28;20178;-76
2022/11/24 00:06:09;;;;;;;14.53;2.37;;;;;8.00;99802.00;;;;10425281;28;20213;-76
2022/11/24 00:11:17;;;;;;;19.70;2.97;;;;;8.00;99820.00;;;;10476105;28;20264;-76
2022/11/24 00:16:22;;;;;;;14.30;2.80;;;;;8.00;99810.00;;;;10442476;28;20201;-77
2022/11/24 00:21:25;;;;;;;11.10;2.47;;;;;8.10;99808.00;;;;10417547;28;20197;-76
2022/11/24 00:26:29;;;;;;;11.60;2.50;;;;;8.10;99813.00;;;;10459096;28;20197;-76
2022/11/24 00:31:34;;;;;;;12.13;2.87;;;;;8.00;99827.00;;;;10442358;28;20240;-76
2022/11/24 00:36:37;;;;;;;7.87;2.43;;;;;8.00;99819.00;;;;10423205;28;20194;-76
2022/11/24 00:41:39;;;;;;;7.60;2.33;;;;;8.10;99822.00;;;;10436948;28;20185;-76
2022/11/24 00:46:41;;;;;;;16.03;3.00;;;;;8.10;99821.00;;;;10492979;28;20702;-76
2022/11/24 00:51:43;;;;;;;15.80;3.37;;;;;8.10;99812.00;;;;10433846;28;20213;-76
2022/11/24 00:56:46;;;;;;;17.27;2.90;;;;;8.10;99830.00;;;;10442008;28;20276;-76
2022/11/24 01:01:48;;;;;;;16.67;3.27;;;;;8.10;99826.00;;;;10424823;28;20194;-76
2022/11/24 01:06:50;;;;;;;11.67;2.97;;;;;8.10;99840.00;;;;10417776;28;20237;-76
2022/11/24 01:12:01;;;;;;;12.43;3.20;;;;;8.20;99838.00;;;;10441733;28;20224;-76
2022/11/24 01:17:03;;;;;;;13.47;3.40;;;;;8.20;99841.00;;;;10474782;28;20194;-76
2022/11/24 01:22:05;;;;;;;11.17;2.97;;;;;8.40;99826.00;;;;10469581;28;20182;-76
2022/11/24 01:27:06;;;;;;;16.67;3.23;;;;;8.30;99840.00;;;;10453132;28;20216;-76
2022/11/24 01:32:08;;;;;;;12.17;2.83;;;;;8.30;99838.00;;;;10425448;28;20206;-76
2022/11/24 01:37:10;;;;;;;9.47;2.27;;;;;8.20;99833.00;;;;10456852;28;20217;-76
2022/11/24 01:42:12;;;;;;;18.37;3.83;;;;;8.20;99840.00;;;;10457468;28;20205;-76
2022/11/24 01:47:32;;;;;;;19.00;3.30;;;;;8.20;99858.00;;;;10457191;28;20259;-76
2022/11/24 01:52:44;;;;;;;17.00;4.07;;;;;8.20;99859.00;;;;10440355;28;20205;-77
2022/11/24 01:57:55;;;;;;;12.33;3.00;;;;;8.30;99861.00;;;;10424493;28;20201;-77
2022/11/24 02:02:58;;;;;;;14.03;3.27;;;;;8.40;99863.00;;;;10440532;28;20670;-76
2022/11/24 02:08:01;;;;;;;18.67;4.13;;;;;8.40;99877.00;;;;10438986;28;20232;-76
2022/11/24 02:13:04;;;;;;;11.67;2.73;;;;;8.50;99880.00;;;;10447469;28;20572;-76
2022/11/24 02:18:06;;;;;;;10.93;2.93;;;;;8.50;99877.00;;;;10447182;28;20206;-76
2022/11/24 02:23:18;;;;;;;19.23;4.07;;;;;8.50;99882.00;;;;10428311;28;20233;-76
2022/11/24 02:28:22;;;;;;;16.50;2.83;;;;;8.60;99902.00;;;;10405715;28;20236;-76
2022/11/24 02:33:24;;;;;;;23.27;3.20;;;;;8.60;99903.00;;;;10456570;28;20214;-76
2022/11/24 02:38:34;;;;;;;15.00;3.33;;;;;8.70;99911.00;;;;10436737;28;20205;-76
2022/11/24 02:43:47;;;;;;;17.97;3.00;;;;;8.70;99911.00;;;;10471423;28;20189;-75
2022/11/24 02:48:49;;;;;;;13.63;3.10;;;;;8.80;99925.00;;;;10446409;28;20219;-76
2022/11/24 02:53:51;;;;;;;13.83;4.23;;;;;8.90;99901.00;;;;10412617;28;20214;-76
2022/11/24 02:58:52;;;;;;;12.97;3.50;;;;;8.70;99913.00;;;;10421056;28;20205;-76
2022/11/24 03:03:54;;;;;;;21.70;4.00;;;;;8.60;99920.00;;;;10421195;28;20787;-76
2022/11/24 03:08:56;;;;;;;12.63;2.97;;;;;8.60;99937.00;;;;10468757;28;20221;-76
2022/11/24 03:13:58;;;;;;;14.53;3.83;;;;;8.50;99948.00;;;;10445421;28;20255;-76
2022/11/24 03:19:00;;;;;;;21.53;3.77;;;;;8.40;99932.00;;;;10420657;28;20202;-76
2022/11/24 03:24:03;;;;;;;17.27;2.83;;;;;8.40;99930.00;;;;10430711;28;20186;-76
2022/11/24 03:29:05;;;;;;;10.73;3.13;;;;;8.40;99929.00;;;;10475812;28;20568;-76
2022/11/24 03:34:07;;;;;;;14.40;2.60;;;;;8.40;99948.00;;;;10436247;28;20432;-76
2022/11/24 03:39:09;;;;;;;12.40;2.87;;;;;8.40;99949.00;;;;10473520;28;20190;-76
2022/11/24 03:44:11;;;;;;;7.50;2.40;;;;;8.40;99957.00;;;;10444293;28;20197;-76
2022/11/24 03:49:12;;;;;;;14.30;3.93;;;;;8.20;99969.00;;;;10477272;28;20194;-76
2022/11/24 03:54:14;;;;;;;9.27;1.77;;;;;8.00;99984.00;;;;10448635;28;20568;-77
2022/11/24 03:59:18;;;;;;;7.93;1.50;;;;;7.80;99978.00;;;;10477185;28;20189;-77
2022/11/24 04:04:19;;;;;;;8.07;1.60;;;;;7.70;99977.00;;;;10476549;28;20193;-77
2022/11/24 04:09:21;;;;;;;5.57;1.60;;;;;7.60;99989.00;;;;10442549;28;20267;-77
2022/11/24 04:14:23;;;;;;;6.67;1.33;;;;;7.50;99992.00;;;;10426422;28;20209;-77
2022/11/24 04:19:25;;;;;;;3.07;1.03;;;;;7.50;100007.00;;;;10475608;28;20201;-77
2022/11/24 04:24:27;;;;;;;5.57;1.60;;;;;7.50;100023.00;;;;10459029;28;20178;-76
2022/11/24 04:29:30;;;;;;;6.50;1.13;;;;;7.50;100017.00;;;;10442548;28;20205;-77
2022/11/24 04:34:32;;;;;;;5.10;1.23;;;;;7.40;100014.00;;;;10441208;28;20210;-76
2022/11/24 04:39:34;;;;;;;2.73;0.80;;;;;7.50;100009.00;;;;10459407;28;20644;-76
2022/11/24 04:44:36;;;;;;;5.67;1.00;;;;;7.50;100017.00;;;;10426209;28;20201;-77
2022/11/24 04:49:38;;;;;;;3.10;0.57;;;;;7.50;100029.00;;;;10428484;28;20189;-76
2022/11/24 04:54:40;;;;;;;5.63;1.13;;;;;7.50;100040.00;;;;10441932;28;20422;-76
2022/11/24 04:59:42;;;;;;;4.00;0.77;;;;;7.50;100040.00;;;;10433271;28;20194;-76
2022/11/24 05:04:44;;;;;;;1.20;1.00;;;;;7.40;100056.00;;;;10412843;28;20194;-76
2022/11/24 05:15:08;;;;;;;3.07;0.80;;;;;7.30;100092.00;;;;10470742;28;20591;-76
2022/11/24 05:20:10;;;;;;;1.63;1.00;;;;;7.30;100092.00;;;;10463919;28;20194;-76
2022/11/24 05:25:13;;;;;;;1.97;0.87;;;;;7.20;100093.00;;;;10467182;28;20725;-76
2022/11/24 05:30:14;;;;;;;4.63;1.30;;;;;7.10;100115.00;;;;10432970;28;20653;-76
2022/11/24 05:35:17;;;;;;;3.43;0.80;;;;;7.10;100111.00;;;;10440710;28;20198;-76
2022/11/24 05:40:19;;;;;;;6.60;1.00;;;;;7.10;100114.00;;;;10436090;28;20554;-76
2022/11/24 05:45:22;;;;;;;7.23;1.13;;;;;7.10;100125.00;;;;10466234;28;20220;-76
2022/11/24 05:50:23;;;;;;;3.53;1.07;;;;;7.20;100138.00;;;;10437565;28;20198;-77
2022/11/24 05:55:25;;;;;;;4.67;1.33;;;;;7.10;100129.00;;;;10448639;28;20205;-76
2022/11/24 06:00:29;;;;;;;2.23;1.20;;;;;7.10;100150.00;;;;10435160;28;20212;-76
2022/11/24 06:05:31;;;;;;;6.30;1.37;;;;;7.10;100149.00;;;;10424209;28;20244;-76
2022/11/24 06:10:33;;;;;;;6.10;1.33;;;;;7.10;100167.00;;;;10444181;28;20730;-76
2022/11/24 06:15:36;;;;;;;8.60;1.50;;;;;7.10;100174.00;;;;10432222;28;20569;-76
2022/11/24 06:20:38;;;;;;;6.27;1.40;;;;;7.20;100182.00;;;;10443021;28;20206;-76
2022/11/24 06:25:40;;;;;;;9.50;2.20;;;;;7.10;100179.00;;;;10441708;28;20194;-76
2022/11/24 06:30:42;;;;;;;5.70;1.83;;;;;7.10;100194.00;;;;10462558;28;20211;-77
2022/11/24 06:35:44;;;;;;;9.43;2.60;;;;;7.00;100205.00;;;;10461795;28;20224;-76
2022/11/24 06:40:45;;;;;;;7.37;1.67;;;;;7.00;100209.00;;;;10446054;28;20200;-76
2022/11/24 06:45:53;;;;;;;6.90;1.63;;;;;7.00;100225.00;;;;10463089;28;20251;-77
2022/11/24 06:51:03;;;;;;;9.00;2.33;;;;;6.90;100226.00;;;;10444882;28;20194;-76
2022/11/24 06:56:07;;;;;;;8.93;1.57;;;;;6.90;100234.00;;;;10445498;28;20212;-76
2022/11/24 07:01:23;;;;;;;10.17;2.03;;;;;6.90;100245.00;;;;10430713;28;20205;-76
2022/11/24 07:06:27;;;;;;;5.17;1.73;;;;;6.90;100268.00;;;;10435023;28;20225;-77
2022/11/24 07:11:29;;;;;;;10.53;2.37;;;;;6.80;100276.00;;;;10425169;28;20198;-76
2022/11/24 07:16:31;;;;;;;13.00;1.90;;;;;6.80;100281.00;;;;10436623;28;20209;-76
2022/11/24 07:21:33;;;;;;;8.90;1.90;;;;;6.90;100289.00;;;;10461797;28;20194;-76
2022/11/24 07:26:36;;;;;;;10.70;1.70;;;;;7.00;100301.00;;;;10428750;28;20194;-76
2022/11/24 07:31:38;;;;;;;7.30;1.87;;;;;7.00;100303.00;;;;10461655;28;20182;-76
2022/11/24 07:36:41;;;;;;;10.13;1.73;;;;;7.00;100314.00;;;;10443130;28;20293;-76
2022/11/24 07:41:43;;;;;;;5.77;1.80;;;;;7.10;100321.00;;;;10444450;28;20194;-77
2022/11/24 07:46:45;;;;;;;12.33;1.63;;;;;7.20;100321.00;;;;10461015;28;20190;-76
2022/11/24 07:51:47;;;;;;;7.53;2.07;;;;;7.20;100332.00;;;;10426978;28;20193;-76
2022/11/24 07:56:49;;;;;;;3.00;1.47;;;;;7.30;100356.00;;;;10460364;28;20194;-76
2022/11/24 08:01:51;;;;;;;9.27;1.47;;;;;7.40;100361.00;;;;10460024;28;20196;-76
2022/11/24 08:06:53;;;;;;;6.50;2.23;;;;;7.50;100376.00;;;;10426990;28;20216;-76
2022/11/24 08:11:55;;;;;;;7.77;1.53;;;;;7.60;100384.00;;;;10420605;28;20204;-76
2022/11/24 08:16:57;;;;;;;10.43;2.03;;;;;7.60;100390.00;;;;10428214;28;20569;-77
2022/11/24 08:21:59;;;;;;;10.33;2.20;;;;;7.80;100399.00;;;;10426281;28;20228;-76
2022/11/24 08:27:01;;;;;;;8.77;2.40;;;;;7.90;100404.00;;;;10427513;28;20205;-76
2022/11/24 08:32:03;;;;;;;8.70;2.17;;;;;8.10;100410.00;;;;10433318;28;20186;-76
2022/11/24 08:37:06;;;;;;;6.23;2.00;;;;;8.30;100412.00;;;;10427224;28;20280;-76
2022/11/24 08:42:08;;;;;;;8.83;2.97;;;;;8.60;100413.00;;;;10408548;28;20590;-76
2022/11/24 08:47:10;;;;;;;5.43;1.87;;;;;8.90;100417.00;;;;10435871;28;20232;-76
2022/11/24 08:52:12;;;;;;;8.60;1.60;;;;;9.20;100428.00;;;;10393155;28;20210;-77
2022/11/24 08:57:14;;;;;;;7.87;1.87;;;;;9.40;100442.00;;;;10430112;28;20367;-76
2022/11/24 09:02:22;;;;;;;8.80;1.80;;;;;9.60;100445.00;;;;10426103;28;20208;-76
2022/11/24 09:07:24;;;;;;;10.33;2.10;;;;;9.80;100463.00;;;;10465807;28;20205;-76
2022/11/24 09:12:27;;;;;;;4.10;1.50;;;;;10.00;100464.00;;;;10431873;28;20225;-76
2022/11/24 09:17:28;;;;;;;9.40;1.70;;;;;10.10;100467.00;;;;10413364;28;20411;-76
2022/11/24 09:22:31;;;;;;;6.27;1.87;;;;;10.10;100476.00;;;;10405698;28;20205;-76
2022/11/24 09:27:32;;;;;;;9.53;2.23;;;;;10.10;100482.00;;;;10431635;28;20232;-76
2022/11/24 09:32:34;;;;;;;15.10;3.27;;;;;10.10;100484.00;;;;10437172;28;20286;-76
2022/11/24 09:37:36;;;;;;;8.13;1.67;;;;;10.20;100487.00;;;;10437005;28;20292;-76
2022/11/24 09:43:01;;;;;;;6.17;1.57;;;;;10.30;100511.00;;;;10439907;28;20725;-76
2022/11/24 09:48:21;;;;;;;6.97;1.63;;;;;10.40;100516.00;;;;10421621;28;20190;-76
2022/11/24 09:53:44;;;;;;;7.87;1.90;;;;;10.60;100513.00;;;;10411826;28;20209;-76
2022/11/24 09:58:58;;;;;;;8.27;2.23;;;;;10.80;100522.00;;;;10425257;28;20189;-76
2022/11/24 10:04:01;;;;;;;10.57;2.13;;;;;11.00;100522.00;;;;10424305;28;20692;-76
2022/11/24 10:09:35;;;;;;;9.47;1.90;;;;;11.20;100520.00;;;;10442340;28;20221;-76
2022/11/24 10:15:06;;;;;;;5.87;2.60;;;;;11.40;100518.00;;;;10443468;28;20217;-76
2022/11/24 10:20:21;;;;;;;6.50;1.97;;;;;11.60;100522.00;;;;10446653;28;20201;-76
2022/11/24 10:25:41;;;;;;;10.10;2.10;;;;;11.80;100522.00;;;;10406692;28;20197;-77
2022/11/24 10:30:43;;;;;;;10.50;2.93;;;;;12.00;100522.00;;;;10450934;28;20709;-76
2022/11/24 10:35:47;;;;;;;11.90;1.83;;;;;12.10;100525.00;;;;10410392;28;20202;-77
2022/11/24 10:41:04;;;;;;;6.23;1.60;;;;;12.30;100528.00;;;;10438649;28;20243;-76
2022/11/24 10:46:27;;;;;;;7.80;1.83;;;;;12.40;100533.00;;;;10420424;28;20236;-76
2022/11/24 10:51:29;;;;;;;7.43;2.07;;;;;12.50;100536.00;;;;10412120;28;20200;-77
2022/11/24 10:56:42;;;;;;;13.27;2.53;;;;;12.60;100540.00;;;;10458508;28;20297;-76
2022/11/24 11:01:44;;;;;;;6.40;2.20;;;;;12.70;100543.00;;;;10393158;28;20710;-76
2022/11/24 11:06:46;;;;;;;14.27;2.03;;;;;12.70;100551.00;;;;10444388;28;20217;-76
2022/11/24 11:11:52;;;;;;;11.07;2.43;;;;;12.80;100542.00;;;;10449397;28;20341;-76
2022/11/24 11:16:56;;;;;;;10.83;2.10;;;;;12.80;100533.00;;;;10421639;28;20198;-77
2022/11/24 11:22:02;;;;;;;12.83;2.63;;;;;12.80;100555.00;;;;10429294;28;20190;-76
2022/11/24 11:27:17;;;;;;;9.83;2.03;;;;;13.00;100552.00;;;;10427607;28;20648;-76
2022/11/24 11:32:22;;;;;;;12.07;2.37;;;;;13.00;100560.00;;;;10406307;28;20189;-77
2022/11/24 11:37:44;;;;;;;6.27;2.00;;;;;13.80;100547.00;;;;10412066;28;20197;-77
2022/11/24 11:42:50;;;;;;;10.20;2.45;;;;;13.90;100537.00;;;;10444117;28;20189;-76
2022/11/24 11:48:25;;;;;;;13.98;2.78;;;;;13.80;100543.00;;;;10460860;28;20255;-77
2022/11/24 11:53:45;;;;;;;12.38;1.98;;;;;13.80;100541.00;;;;10429186;28;20208;-76
2022/11/24 11:59:08;;;;;;;9.18;2.35;;;;;13.80;100537.00;;;;10417332;28;20221;-77
2022/11/24 12:04:33;;;;;;;11.90;2.53;;;;;14.00;100529.00;;;;10437183;28;20204;-77
2022/11/24 12:09:41;;;;;;;6.35;2.33;;;;;14.10;100536.00;;;;10437489;28;20237;-76
2022/11/24 12:15:06;;;;;;;7.68;2.55;;;;;14.10;100529.00;;;;10420890;28;20210;-76
2022/11/24 12:20:23;;;;;;;8.52;1.83;;;;;13.80;100531.00;;;;10402399;28;20225;-77
2022/11/24 12:25:34;;;;;;;8.20;1.97;;;;;13.60;100535.00;;;;10427571;28;20645;-76
2022/11/24 12:30:56;;;;;;;10.50;2.00;;;;;13.10;100534.00;;;;10459988;28;20561;-76
2022/11/24 12:36:12;;;;;;;11.10;1.90;;;;;13.00;100525.00;;;;10416748;28;20206;-76
2022/11/24 12:41:27;;;;;;;8.20;2.00;;;;;13.60;100526.00;;;;10434409;28;20186;-77
2022/11/24 12:47:12;;;;;;;11.63;2.07;;;;;14.00;100523.00;;;;10413067;28;20197;-76
2022/11/24 12:52:25;;;;;;;10.98;2.72;;;;;14.10;100530.00;;;;10426988;28;20194;-76
2022/11/24 12:57:38;;;;;;;10.03;2.10;;;;;14.10;100520.00;;;;10440387;28;20248;-76
2022/11/24 13:03:04;;;;;;;12.40;2.20;;;;;14.00;100516.00;;;;10445950;28;20228;-77
2022/11/24 13:08:06;;;;;;;10.13;1.73;;;;;13.80;100507.00;;;;10440714;28;20684;-76
2022/11/24 13:13:10;;;;;;;7.72;1.52;;;;;13.50;100502.00;;;;10420676;28;20196;-76
2022/11/24 13:18:51;;;;;;;13.97;2.33;;;;;13.40;100505.00;;;;10397196;28;20193;-77
2022/11/24 13:24:02;;;;;;;6.25;1.83;;;;;13.20;100506.00;;;;10432599;28;20193;-76
2022/11/24 13:29:25;;;;;;;10.30;2.40;;;;;13.10;100512.00;;;;10444390;28;20219;-76
2022/11/24 13:34:39;;;;;;;14.20;2.50;;;;;12.80;100503.00;;;;10422431;28;20258;-76
2022/11/24 13:39:53;;;;;;;8.47;1.80;;;;;12.30;100501.00;;;;10423451;28;20308;-76
2022/11/24 13:45:00;;;;;;;12.63;2.17;;;;;12.00;100505.00;;;;10432214;28;20225;-76
2022/11/24 13:50:13;;;;;;;13.30;2.40;;;;;11.80;100501.00;;;;10445423;28;20211;-76
2022/11/24 13:55:14;;;;;;;7.53;2.37;;;;;11.60;100510.00;;;;10423448;28;20271;-76
2022/11/24 14:00:16;;;;;;;10.57;2.33;;;;;11.40;100512.00;;;;10424223;28;20201;-77
2022/11/24 14:05:22;;;;;;;11.23;2.80;;;;;11.30;100518.00;;;;10446356;28;20186;-76
2022/11/24 14:10:31;;;;;;;11.87;2.17;;;;;11.30;100523.00;;;;10408861;28;20564;-76
2022/11/24 14:15:35;;;;;;;12.53;2.40;;;;;11.30;100516.00;;;;10456250;28;20674;-76
2022/11/24 14:20:37;;;;;;;14.37;2.90;;;;;11.30;100516.00;;;;10435722;28;20201;-76
2022/11/24 14:25:39;;;;;;;8.07;2.97;;;;;11.30;100506.00;;;;10445869;28;20262;-76
2022/11/24 14:30:41;;;;;;;14.50;2.70;;;;;11.30;100511.00;;;;10453711;28;20194;-76
2022/11/24 14:35:45;;;;;;;13.03;1.93;;;;;11.10;100507.00;;;;10447581;28;20205;-76
2022/11/24 14:40:54;;;;;;;8.97;2.17;;;;;11.00;100499.00;;;;10434953;28;20190;-76
2022/11/24 14:45:59;;;;;;;15.10;2.37;;;;;10.80;100507.00;;;;10436457;28;20294;-76
2022/11/24 14:51:22;;;;;;;8.90;2.07;;;;;10.70;100505.00;;;;10440775;28;20197;-76
2022/11/24 14:56:35;;;;;;;10.60;2.77;;;;;10.50;100501.00;;;;10399261;28;20198;-76
2022/11/24 15:01:37;;;;;;;8.10;2.47;;;;;10.30;100503.00;;;;10440208;28;20189;-76
2022/11/24 15:06:44;;;;;;;11.97;3.17;;;;;10.20;100497.00;;;;10415061;28;20218;-76
2022/11/24 15:11:47;;;;;;;12.00;2.87;;;;;10.00;100497.00;;;;10431570;28;20193;-75
2022/11/24 15:16:49;;;;;;;12.03;3.03;;;;;10.00;100505.00;;;;10401479;28;20202;-76
2022/11/24 15:21:51;;;;;;;11.57;3.20;;;;;9.90;100494.00;;;;10444031;28;20221;-76
2022/11/24 15:27:00;;;;;;;8.73;2.37;;;;;9.70;100487.00;;;;10425891;28;20202;-76
2022/11/24 15:32:12;;;;;;;13.57;3.17;;;;;9.60;100492.00;;;;10428607;28;20827;-76
2022/11/24 15:37:14;;;;;;;8.07;2.60;;;;;9.50;100492.00;;;;10428956;28;20764;-76
2022/11/24 15:42:16;;;;;;;10.77;2.43;;;;;9.50;100491.00;;;;10450659;28;20282;-77
2022/11/24 15:47:18;;;;;;;18.17;3.07;;;;;9.50;100493.00;;;;10401890;28;20206;-76
2022/11/24 15:52:20;;;;;;;16.07;2.23;;;;;9.50;100490.00;;;;10420035;28;20202;-76
2022/11/24 15:57:22;;;;;;;8.97;2.50;;;;;9.40;100499.00;;;;10404151;28;20206;-76
2022/11/24 16:02:24;;;;;;;7.00;2.90;;;;;9.30;100485.00;;;;10403149;28;20190;-76
2022/11/24 16:07:26;;;;;;;8.83;1.90;;;;;9.20;100492.00;;;;10387369;28;20222;-76
2022/11/24 16:12:28;;;;;;;9.70;2.27;;;;;9.10;100483.00;;;;10419372;28;20190;-76
2022/11/24 16:17:30;;;;;;;6.87;2.57;;;;;9.00;100486.00;;;;10414703;28;20260;-76
2022/11/24 16:22:32;;;;;;;16.07;2.53;;;;;9.00;100495.00;;;;10406809;28;20201;-76
2022/11/24 16:27:34;;;;;;;7.33;2.03;;;;;8.90;100505.00;;;;10458222;28;20266;-76
2022/11/24 16:32:36;;;;;;;12.40;2.83;;;;;8.80;100504.00;;;;10403156;28;20580;-76
2022/11/24 16:37:38;;;;;;;8.07;2.47;;;;;8.80;100513.00;;;;10441936;28;20232;-76
2022/11/24 16:42:40;;;;;;;9.53;2.67;;;;;8.70;100500.00;;;;10434204;28;20193;-77
2022/11/24 16:47:41;;;;;;;13.80;2.60;;;;;8.70;100504.00;;;;10400634;28;20190;-76
2022/11/24 16:52:43;;;;;;;8.53;2.43;;;;;8.70;100493.00;;;;10425185;28;20297;-77
2022/11/24 16:57:45;;;;;;;9.93;2.20;;;;;8.60;100493.00;;;;10425839;28;20224;-76
2022/11/24 17:02:47;;;;;;;14.53;2.47;;;;;8.50;100478.00;;;;10457800;28;20267;-76
2022/11/24 17:07:49;;;;;;;12.50;2.60;;;;;8.50;100490.00;;;;10424777;28;20213;-76
2022/11/24 17:12:51;;;;;;;10.80;2.37;;;;;8.40;100491.00;;;;10437998;28;20193;-76
2022/11/24 17:17:53;;;;;;;7.30;2.60;;;;;8.40;100485.00;;;;10430422;28;20210;-76
2022/11/24 17:23:16;;;;;;;10.10;2.60;;;;;8.40;100482.00;;;;10438269;28;20190;-76
2022/11/24 17:28:18;;;;;;;9.93;2.00;;;;;8.30;100474.00;;;;10417969;28;20200;-76
2022/11/24 17:33:20;;;;;;;11.60;2.50;;;;;8.30;100474.00;;;;10441235;28;20205;-76
2022/11/24 17:38:22;;;;;;;12.77;2.60;;;;;8.30;100465.00;;;;10410075;28;20558;-76
2022/11/24 17:43:24;;;;;;;14.33;3.10;;;;;8.30;100463.00;;;;10451182;28;20192;-77
2022/11/24 17:48:27;;;;;;;7.53;2.27;;;;;8.30;100464.00;;;;10464909;28;20185;-76
2022/11/24 17:53:30;;;;;;;9.23;2.70;;;;;8.20;100455.00;;;;10481095;28;20268;-76
2022/11/24 17:58:34;;;;;;;11.80;2.67;;;;;8.20;100451.00;;;;10448561;28;20930;-76
2022/11/24 18:03:43;;;;;;;11.23;2.53;;;;;8.10;100445.00;;;;10443709;28;20198;-76
2022/11/24 18:08:52;;;;;;;7.67;2.00;;;;;8.10;100442.00;;;;10432264;28;20198;-76
2022/11/24 18:13:56;;;;;;;9.53;2.30;;;;;8.10;100436.00;;;;10424955;28;20589;-76
2022/11/24 18:19:04;;;;;;;5.07;2.50;;;;;8.10;100438.00;;;;10410581;28;20178;-76
2022/11/24 18:24:12;;;;;;;13.27;2.77;;;;;8.20;100438.00;;;;10426189;28;20190;-76
2022/11/24 18:29:14;;;;;;;13.00;2.60;;;;;8.20;100442.00;;;;10443854;28;20221;-76
2022/11/24 18:34:16;;;;;;;9.20;3.23;;;;;8.40;100443.00;;;;10436530;28;20213;-76
2022/11/24 18:39:18;;;;;;;9.57;2.50;;;;;8.40;100448.00;;;;10426470;28;20212;-76
2022/11/24 18:44:20;;;;;;;10.13;2.60;;;;;8.40;100437.00;;;;10437080;28;20243;-77
2022/11/24 18:49:22;;;;;;;10.87;2.57;;;;;8.50;100452.00;;;;10446630;28;20825;-76
2022/11/24 18:54:26;;;;;;;12.73;2.73;;;;;8.50;100439.00;;;;10473147;28;20663;-77
2022/11/24 18:59:28;;;;;;;7.97;2.40;;;;;8.50;100449.00;;;;10427681;28;20652;-76
2022/11/24 19:04:30;;;;;;;11.60;2.90;;;;;8.50;100450.00;;;;10402875;28;20954;-76
2022/11/24 19:09:32;;;;;;;10.60;3.13;;;;;8.40;100443.00;;;;10430447;28;20684;-76
2022/11/24 19:14:33;;;;;;;9.47;3.07;;;;;8.40;100431.00;;;;10426682;28;20210;-76
2022/11/24 19:19:36;;;;;;;11.20;2.93;;;;;8.40;100431.00;;;;10408033;28;20552;-77
2022/11/24 19:24:38;;;;;;;8.80;2.93;;;;;8.40;100438.00;;;;10427711;28;20193;-76
2022/11/24 19:29:40;;;;;;;9.90;2.33;;;;;8.40;100444.00;;;;10449382;28;20191;-76
2022/11/24 19:34:44;;;;;;;13.67;3.13;;;;;8.50;100438.00;;;;10453200;28;20244;-76
2022/11/24 19:39:46;;;;;;;12.90;3.10;;;;;8.60;100421.00;;;;10395102;28;20224;-76
2022/11/24 19:44:48;;;;;;;13.60;3.17;;;;;8.60;100432.00;;;;10431263;28;20218;-77
2022/11/24 19:49:57;;;;;;;15.57;2.90;;;;;8.60;100412.00;;;;10430561;28;20591;-76
2022/11/24 19:55:00;;;;;;;16.10;3.00;;;;;8.60;100405.00;;;;10442272;28;20260;-76
2022/11/24 20:00:05;;;;;;;14.93;3.13;;;;;8.60;100391.00;;;;10449053;28;20286;-76
2022/11/24 20:05:07;;;;;;;19.77;4.03;;;;;8.60;100409.00;;;;10409563;28;20197;-76
2022/11/24 20:10:09;;;;;;;7.53;2.70;;;;;8.60;100406.00;;;;10408621;28;20202;-76
2022/11/24 20:15:11;;;;;;;10.33;3.20;;;;;8.60;100420.00;;;;10425599;28;20691;-76
2022/11/24 20:20:13;;;;;;;10.57;2.63;;;;;8.60;100409.00;;;;10422708;28;20190;-76
2022/11/24 20:25:15;;;;;;;8.83;3.73;;;;;8.70;100396.00;;;;10418504;28;20281;-76
2022/11/24 20:30:17;;;;;;;7.83;2.33;;;;;8.70;100384.00;;;;10428762;28;20192;-76
2022/11/24 20:35:19;;;;;;;12.70;2.90;;;;;8.80;100400.00;;;;10441708;28;20572;-76
2022/11/24 20:40:21;;;;;;;10.27;2.60;;;;;8.80;100394.00;;;;10409128;28;20289;-76
2022/11/24 20:45:23;;;;;;;10.57;2.37;;;;;8.90;100382.00;;;;10424672;28;20241;-76
2022/11/24 20:50:25;;;;;;;13.97;2.63;;;;;8.90;100390.00;;;;10426318;28;20228;-76
2022/11/24 20:55:27;;;;;;;13.20;2.53;;;;;9.00;100390.00;;;;10432053;28;20210;-76
2022/11/24 21:00:31;;;;;;;11.33;2.77;;;;;9.10;100390.00;;;;10402885;28;20248;-76
2022/11/24 21:05:34;;;;;;;11.27;2.00;;;;;9.20;100376.00;;;;10412465;28;20190;-76
2022/11/24 21:10:35;;;;;;;10.03;2.13;;;;;9.20;100380.00;;;;10423488;28;20225;-76
2022/11/24 21:15:37;;;;;;;11.47;2.37;;;;;9.30;100368.00;;;;10420934;28;20743;-76
2022/11/24 21:20:39;;;;;;;12.50;2.83;;;;;9.40;100381.00;;;;10438506;28;20200;-76
2022/11/24 21:25:42;;;;;;;15.27;3.80;;;;;9.50;100373.00;;;;10423566;28;20217;-76
2022/11/24 21:30:44;;;;;;;10.53;2.77;;;;;9.60;100380.00;;;;10426592;28;20253;-77
2022/11/24 21:35:46;;;;;;;10.40;2.70;;;;;9.60;100383.00;;;;10436750;28;20746;-77
2022/11/24 21:40:48;;;;;;;17.33;3.03;;;;;9.70;100370.00;;;;10441595;28;20645;-76
2022/11/24 21:45:51;;;;;;;14.83;2.97;;;;;9.80;100366.00;;;;10439707;28;20201;-76
2022/11/24 21:50:53;;;;;;;10.90;2.70;;;;;9.90;100366.00;;;;10438079;28;20206;-76
2022/11/24 21:56:00;;;;;;;12.93;2.70;;;;;9.90;100348.00;;;;10412256;28;20210;-76
2022/11/24 22:01:07;;;;;;;7.43;2.57;;;;;9.90;100361.00;;;;10411581;28;20553;-76
2022/11/24 22:06:09;;;;;;;10.33;2.80;;;;;10.00;100351.00;;;;10430052;28;20301;-76
2022/11/24 22:11:17;;;;;;;8.13;2.33;;;;;10.10;100333.00;;;;10451627;28;20194;-77
2022/11/24 22:16:21;;;;;;;11.27;2.67;;;;;10.20;100339.00;;;;10438508;28;20313;-76
2022/11/24 22:21:28;;;;;;;13.63;2.87;;;;;10.20;100349.00;;;;10429278;28;20659;-77
2022/11/24 22:26:30;;;;;;;9.77;1.87;;;;;10.30;100355.00;;;;10435509;28;20203;-75
2022/11/24 22:31:32;;;;;;;16.07;2.77;;;;;10.30;100352.00;;;;10455623;28;20244;-76
2022/11/24 22:36:35;;;;;;;10.73;2.70;;;;;10.30;100349.00;;;;10446432;28;20205;-76
2022/11/24 22:41:37;;;;;;;12.47;2.27;;;;;10.40;100346.00;;;;10462410;28;20198;-76
2022/11/24 22:46:39;;;;;;;13.23;2.53;;;;;10.40;100359.00;;;;10462929;28;20213;-76
2022/11/24 22:51:41;;;;;;;7.10;2.13;;;;;10.50;100363.00;;;;10405366;28;20214;-76
2022/11/24 22:56:42;;;;;;;14.87;2.67;;;;;10.50;100349.00;;;;10416787;28;20685;-76
2022/11/24 23:01:44;;;;;;;13.20;2.47;;;;;10.50;100333.00;;;;10433388;28;20200;-76
2022/11/24 23:06:46;;;;;;;11.43;2.33;;;;;10.60;100337.00;;;;10451251;28;20274;-76
2022/11/24 23:11:48;;;;;;;9.53;2.83;;;;;10.70;100335.00;;;;10462315;28;20184;-76
2022/11/24 23:16:52;;;;;;;6.43;1.70;;;;;10.80;100334.00;;;;10427506;28;20206;-76
2022/11/24 23:21:54;;;;;;;14.97;2.40;;;;;10.80;100346.00;;;;10445210;28;20193;-76
2022/11/24 23:26:56;;;;;;;13.67;2.37;;;;;10.80;100332.00;;;;10451975;28;20195;-75
2022/11/24 23:31:58;;;;;;;9.80;1.93;;;;;10.80;100339.00;;;;10420476;28;20179;-76
2022/11/24 23:37:00;;;;;;;15.93;3.27;;;;;10.80;100349.00;;;;10419869;28;20209;-75
2022/11/24 23:42:02;;;;;;;11.27;2.50;;;;;10.80;100360.00;;;;10444704;28;20201;-76
2022/11/24 23:47:04;;;;;;;12.47;2.57;;;;;10.90;100348.00;;;;10433141;28;20833;-76
2022/11/24 23:52:06;;;;;;;11.73;2.03;;;;;10.90;100352.00;;;;10444576;28;20231;-76
2022/11/24 23:57:07;;;;;;;7.13;1.80;;;;;10.90;100360.00;;;;10425406;28;20210;-76
